sensor_id;sensor_type;location;lat;lon;timestamp;pressure;altitude;pressure_sealevel;temperature;humidity
38054;BME280;23859;50.672;7.164;2023-11-21T00:01:55;35908.16;;;-140.95;82.65
38054;BME280;23859;50.672;7.164;2023-11-21T00:04:21;35894.09;;;-140.95;82.61
38054;BME280;23859;50.672;7.164;2023-11-21T00:06:47;35892.09;;;-140.95;82.77
38054;BME280;23859;50.672;7.164;2023-11-21T00:09:14;35859.94;;;-140.95;82.88
38054;BME280;23859;50.672;7.164;2023-11-21T00:11:44;35896.09;;;-140.95;83.03
38054;BME280;23859;50.672;7.164;2023-11-21T00:14:11;35869.97;;;-140.95;83.05
38054;BME280;23859;50.672;7.164;2023-11-21T00:16:37;35914.19;;;-140.95;82.53
38054;BME280;23859;50.672;7.164;2023-11-21T00:19:03;35859.94;;;-140.95;82.56
38054;BME280;23859;50.672;7.164;2023-11-21T00:21:29;35878.03;;;-140.95;82.22
38054;BME280;23859;50.672;7.164;2023-11-21T00:23:55;35855.91;;;-140.95;81.95
38054;BME280;23859;50.672;7.164;2023-11-21T00:26:22;35851.91;;;-140.95;81.71
38054;BME280;23859;50.672;7.164;2023-11-21T00:28:48;35835.81;;;-140.95;81.44
38054;BME280;23859;50.672;7.164;2023-11-21T00:31:14;35863.94;;;-140.95;81.57
38054;BME280;23859;50.672;7.164;2023-11-21T00:33:40;35863.94;;;-140.95;81.92
38054;BME280;23859;50.672;7.164;2023-11-21T00:36:06;35888.06;;;-140.95;82.29
38054;BME280;23859;50.672;7.164;2023-11-21T00:38:36;35894.09;;;-140.95;82.49
38054;BME280;23859;50.672;7.164;2023-11-21T00:41:02;35884.03;;;-140.95;82.63
38054;BME280;23859;50.672;7.164;2023-11-21T00:43:29;35884.03;;;-140.95;82.32
38054;BME280;23859;50.672;7.164;2023-11-21T00:45:55;35906.16;;;-140.95;82.36
38054;BME280;23859;50.672;7.164;2023-11-21T00:48:21;35892.09;;;-140.95;82.58
38054;BME280;23859;50.672;7.164;2023-11-21T00:50:47;35878.03;;;-140.95;83.03
38054;BME280;23859;50.672;7.164;2023-11-21T00:53:14;35884.03;;;-140.95;83.13
38054;BME280;23859;50.672;7.164;2023-11-21T00:55:40;35888.06;;;-140.95;83.12
38054;BME280;23859;50.672;7.164;2023-11-21T00:58:06;35900.13;;;-140.95;82.89
38054;BME280;23859;50.672;7.164;2023-11-21T01:00:33;35928.25;;;-140.95;83.05
38054;BME280;23859;50.672;7.164;2023-11-21T01:03:00;35859.94;;;-140.95;82.88
38054;BME280;23859;50.672;7.164;2023-11-21T01:05:26;35900.13;;;-140.95;82.88
38054;BME280;23859;50.672;7.164;2023-11-21T01:07:52;35867.97;;;-140.95;82.80
38054;BME280;23859;50.672;7.164;2023-11-21T01:10:18;35900.13;;;-140.95;82.59
38054;BME280;23859;50.672;7.164;2023-11-21T01:12:44;35869.97;;;-140.95;82.57
38054;BME280;23859;50.672;7.164;2023-11-21T01:15:11;35872.00;;;-140.95;82.27
38054;BME280;23859;50.672;7.164;2023-11-21T01:17:38;35872.00;;;-140.95;82.38
38054;BME280;23859;50.672;7.164;2023-11-21T01:20:04;35900.13;;;-140.95;82.33
38054;BME280;23859;50.672;7.164;2023-11-21T01:22:38;35853.91;;;-140.95;82.26
38054;BME280;23859;50.672;7.164;2023-11-21T01:25:04;35878.03;;;-140.95;82.30
38054;BME280;23859;50.672;7.164;2023-11-21T01:27:33;35835.81;;;-140.95;82.26
38054;BME280;23859;50.672;7.164;2023-11-21T01:30:01;35876.00;;;-140.95;82.36
38054;BME280;23859;50.672;7.164;2023-11-21T01:32:27;35843.88;;;-140.95;81.80
38054;BME280;23859;50.672;7.164;2023-11-21T01:34:54;35863.94;;;-140.95;81.67
38054;BME280;23859;50.672;7.164;2023-11-21T01:37:21;35878.03;;;-140.95;82.35
38054;BME280;23859;50.672;7.164;2023-11-21T01:39:48;35855.91;;;-140.95;82.07
38054;BME280;23859;50.672;7.164;2023-11-21T01:42:14;35843.88;;;-140.95;81.84
38054;BME280;23859;50.672;7.164;2023-11-21T01:44:40;35872.00;;;-140.95;82.03
38054;BME280;23859;50.672;7.164;2023-11-21T01:47:07;36109.09;;;-140.95;81.79
38054;BME280;23859;50.672;7.164;2023-11-21T01:49:34;36113.09;;;-140.95;81.88
38054;BME280;23859;50.672;7.164;2023-11-21T01:52:02;35884.03;;;-140.95;81.74
38054;BME280;23859;50.672;7.164;2023-11-21T01:54:30;35847.88;;;-140.95;81.27
38054;BME280;23859;50.672;7.164;2023-11-21T01:56:58;35843.88;;;-140.95;80.90
38054;BME280;23859;50.672;7.164;2023-11-21T01:59:33;35892.09;;;-140.95;81.39
38054;BME280;23859;50.672;7.164;2023-11-21T02:02:00;35863.94;;;-140.95;81.59
38054;BME280;23859;50.672;7.164;2023-11-21T02:04:26;35867.97;;;-140.95;81.22
38054;BME280;23859;50.672;7.164;2023-11-21T02:06:53;35888.06;;;-140.95;81.49
38054;BME280;23859;50.672;7.164;2023-11-21T02:09:27;35843.88;;;-140.95;81.40
38054;BME280;23859;50.672;7.164;2023-11-21T02:11:55;35855.91;;;-140.95;81.21
38054;BME280;23859;50.672;7.164;2023-11-21T02:14:22;35892.09;;;-140.95;81.14
38054;BME280;23859;50.672;7.164;2023-11-21T02:16:52;35839.84;;;-140.95;81.52
38054;BME280;23859;50.672;7.164;2023-11-21T02:19:19;35861.94;;;-140.95;81.59
38054;BME280;23859;50.672;7.164;2023-11-21T02:21:49;35880.03;;;-140.95;81.79
38054;BME280;23859;50.672;7.164;2023-11-21T02:24:15;35898.13;;;-140.95;81.64
38054;BME280;23859;50.672;7.164;2023-11-21T02:26:43;35867.97;;;-140.95;81.49
38054;BME280;23859;50.672;7.164;2023-11-21T02:29:09;35861.94;;;-140.95;80.59
38054;BME280;23859;50.672;7.164;2023-11-21T02:31:37;35876.00;;;-140.95;80.97
38054;BME280;23859;50.672;7.164;2023-11-21T02:34:11;35857.94;;;-140.95;80.71
38054;BME280;23859;50.672;7.164;2023-11-21T02:36:39;35869.97;;;-140.95;80.91
38054;BME280;23859;50.672;7.164;2023-11-21T02:39:05;35867.97;;;-140.95;81.18
38054;BME280;23859;50.672;7.164;2023-11-21T02:41:33;35867.97;;;-140.95;81.48
38054;BME280;23859;50.672;7.164;2023-11-21T02:44:00;35892.09;;;-140.95;81.66
38054;BME280;23859;50.672;7.164;2023-11-21T02:46:26;35880.03;;;-140.95;81.77
38054;BME280;23859;50.672;7.164;2023-11-21T02:48:53;35839.84;;;-140.95;81.67
38054;BME280;23859;50.672;7.164;2023-11-21T02:51:22;35823.78;;;-140.95;80.68
38054;BME280;23859;50.672;7.164;2023-11-21T02:53:48;35876.00;;;-140.95;80.74
38054;BME280;23859;50.672;7.164;2023-11-21T02:56:15;35859.94;;;-140.95;80.62
38054;BME280;23859;50.672;7.164;2023-11-21T02:58:45;35847.88;;;-140.95;80.39
38054;BME280;23859;50.672;7.164;2023-11-21T03:01:11;35853.91;;;-140.95;80.59
38054;BME280;23859;50.672;7.164;2023-11-21T03:03:38;35880.03;;;-140.95;80.76
38054;BME280;23859;50.672;7.164;2023-11-21T03:06:06;35855.91;;;-140.95;81.03
38054;BME280;23859;50.672;7.164;2023-11-21T03:08:32;35853.91;;;-140.95;80.49
38054;BME280;23859;50.672;7.164;2023-11-21T03:10:58;35839.84;;;-140.95;80.20
38054;BME280;23859;50.672;7.164;2023-11-21T03:13:25;35847.88;;;-140.95;80.58
38054;BME280;23859;50.672;7.164;2023-11-21T03:15:51;35863.94;;;-140.95;80.59
38054;BME280;23859;50.672;7.164;2023-11-21T03:18:17;35876.00;;;-140.95;81.01
38054;BME280;23859;50.672;7.164;2023-11-21T03:20:44;35869.97;;;-140.95;80.32
38054;BME280;23859;50.672;7.164;2023-11-21T03:23:13;35851.91;;;-140.95;80.15
38054;BME280;23859;50.672;7.164;2023-11-21T03:25:39;35855.91;;;-140.95;79.86
38054;BME280;23859;50.672;7.164;2023-11-21T03:28:05;35827.78;;;-140.95;79.96
38054;BME280;23859;50.672;7.164;2023-11-21T03:30:31;35859.94;;;-140.95;80.21
38054;BME280;23859;50.672;7.164;2023-11-21T03:32:57;35821.75;;;-140.95;80.46
38054;BME280;23859;50.672;7.164;2023-11-21T03:35:23;35843.88;;;-140.95;80.63
38054;BME280;23859;50.672;7.164;2023-11-21T03:37:50;35867.97;;;-140.95;80.27
38054;BME280;23859;50.672;7.164;2023-11-21T03:40:16;35849.88;;;-140.95;80.60
38054;BME280;23859;50.672;7.164;2023-11-21T03:42:42;35859.94;;;-140.95;80.88
38054;BME280;23859;50.672;7.164;2023-11-21T03:45:09;35847.88;;;-140.95;80.66
38054;BME280;23859;50.672;7.164;2023-11-21T03:47:35;35851.91;;;-140.95;80.31
38054;BME280;23859;50.672;7.164;2023-11-21T03:50:01;35884.03;;;-140.95;80.76
38054;BME280;23859;50.672;7.164;2023-11-21T03:52:29;35886.06;;;-140.95;80.91
38054;BME280;23859;50.672;7.164;2023-11-21T03:54:55;35890.06;;;-140.95;80.82
38054;BME280;23859;50.672;7.164;2023-11-21T03:57:21;35865.97;;;-140.95;80.23
38054;BME280;23859;50.672;7.164;2023-11-21T03:59:48;35851.91;;;-140.95;80.25
38054;BME280;23859;50.672;7.164;2023-11-21T04:02:14;35912.19;;;-140.95;80.48
38054;BME280;23859;50.672;7.164;2023-11-21T04:04:40;35867.97;;;-140.95;80.99
38054;BME280;23859;50.672;7.164;2023-11-21T04:07:06;35904.13;;;-140.95;81.95
38054;BME280;23859;50.672;7.164;2023-11-21T04:09:32;35886.06;;;-140.95;82.24
38054;BME280;23859;50.672;7.164;2023-11-21T04:11:58;35904.13;;;-140.95;82.20
38054;BME280;23859;50.672;7.164;2023-11-21T04:14:24;35880.03;;;-140.95;82.15
38054;BME280;23859;50.672;7.164;2023-11-21T04:16:50;35892.09;;;-140.95;82.01
38054;BME280;23859;50.672;7.164;2023-11-21T04:19:16;35896.09;;;-140.95;81.22
38054;BME280;23859;50.672;7.164;2023-11-21T04:21:43;35886.06;;;-140.95;81.33
38054;BME280;23859;50.672;7.164;2023-11-21T04:24:09;35888.06;;;-140.95;81.50
38054;BME280;23859;50.672;7.164;2023-11-21T04:26:35;35867.97;;;-140.95;81.85
38054;BME280;23859;50.672;7.164;2023-11-21T04:29:01;35861.94;;;-140.95;82.05
38054;BME280;23859;50.672;7.164;2023-11-21T04:31:27;35872.00;;;-140.95;81.59
38054;BME280;23859;50.672;7.164;2023-11-21T04:33:53;35876.00;;;-140.95;81.21
38054;BME280;23859;50.672;7.164;2023-11-21T04:36:19;35892.09;;;-140.95;80.81
38054;BME280;23859;50.672;7.164;2023-11-21T04:38:45;35855.91;;;-140.95;80.82
38054;BME280;23859;50.672;7.164;2023-11-21T04:41:11;35918.19;;;-140.95;80.88
38054;BME280;23859;50.672;7.164;2023-11-21T04:43:37;35867.97;;;-140.95;81.29
38054;BME280;23859;50.672;7.164;2023-11-21T04:46:04;35859.94;;;-140.95;81.67
38054;BME280;23859;50.672;7.164;2023-11-21T04:48:30;35894.09;;;-140.95;81.62
38054;BME280;23859;50.672;7.164;2023-11-21T04:50:56;35900.13;;;-140.95;81.74
38054;BME280;23859;50.672;7.164;2023-11-21T04:53:22;35894.09;;;-140.95;81.95
38054;BME280;23859;50.672;7.164;2023-11-21T04:55:48;35902.13;;;-140.95;82.18
38054;BME280;23859;50.672;7.164;2023-11-21T04:58:14;35900.13;;;-140.95;82.05
38054;BME280;23859;50.672;7.164;2023-11-21T05:00:40;35898.13;;;-140.95;82.08
38054;BME280;23859;50.672;7.164;2023-11-21T05:03:07;36127.16;;;-140.95;81.99
38054;BME280;23859;50.672;7.164;2023-11-21T05:05:33;35892.09;;;-140.95;82.06
38054;BME280;23859;50.672;7.164;2023-11-21T05:08:00;35894.09;;;-140.95;82.13
38054;BME280;23859;50.672;7.164;2023-11-21T05:10:27;35863.94;;;-140.95;82.00
38054;BME280;23859;50.672;7.164;2023-11-21T05:12:53;35861.94;;;-140.95;82.22
38054;BME280;23859;50.672;7.164;2023-11-21T05:15:19;35892.09;;;-140.95;82.30
38054;BME280;23859;50.672;7.164;2023-11-21T05:17:45;35882.03;;;-140.95;82.26
38054;BME280;23859;50.672;7.164;2023-11-21T05:20:15;35912.19;;;-140.95;82.40
38054;BME280;23859;50.672;7.164;2023-11-21T05:22:44;35910.16;;;-140.95;81.88
38054;BME280;23859;50.672;7.164;2023-11-21T05:25:10;35851.91;;;-140.95;81.85
38054;BME280;23859;50.672;7.164;2023-11-21T05:27:37;34497.94;;;-140.95;81.85
38054;BME280;23859;50.672;7.164;2023-11-21T05:30:04;35884.03;;;-140.95;80.99
38054;BME280;23859;50.672;7.164;2023-11-21T05:32:32;35863.94;;;-140.95;81.03
38054;BME280;23859;50.672;7.164;2023-11-21T05:34:58;35851.91;;;-140.95;80.59
38054;BME280;23859;50.672;7.164;2023-11-21T05:37:25;35849.88;;;-140.95;80.79
38054;BME280;23859;50.672;7.164;2023-11-21T05:39:53;35863.94;;;-140.95;81.24
38054;BME280;23859;50.672;7.164;2023-11-21T05:42:22;35855.91;;;-140.95;80.63
38054;BME280;23859;50.672;7.164;2023-11-21T05:44:49;35853.91;;;-140.95;81.09
38054;BME280;23859;50.672;7.164;2023-11-21T05:47:15;35890.06;;;-140.95;81.29
38054;BME280;23859;50.672;7.164;2023-11-21T05:49:41;35914.19;;;-140.95;81.27
38054;BME280;23859;50.672;7.164;2023-11-21T05:52:08;35898.13;;;-140.95;81.26
38054;BME280;23859;50.672;7.164;2023-11-21T05:54:34;35888.06;;;-140.95;81.38
38054;BME280;23859;50.672;7.164;2023-11-21T05:57:00;35894.09;;;-140.95;81.49
38054;BME280;23859;50.672;7.164;2023-11-21T05:59:26;35851.91;;;-140.95;81.50
38054;BME280;23859;50.672;7.164;2023-11-21T06:01:52;35863.94;;;-140.95;80.95
38054;BME280;23859;50.672;7.164;2023-11-21T06:04:19;35880.03;;;-140.95;80.82
38054;BME280;23859;50.672;7.164;2023-11-21T06:06:50;35855.91;;;-140.95;80.93
38054;BME280;23859;50.672;7.164;2023-11-21T06:09:16;35896.09;;;-140.95;81.01
38054;BME280;23859;50.672;7.164;2023-11-21T06:11:42;35876.00;;;-140.95;80.22
38054;BME280;23859;50.672;7.164;2023-11-21T06:14:08;35851.91;;;-140.95;80.62
38054;BME280;23859;50.672;7.164;2023-11-21T06:16:35;35888.06;;;-140.95;80.97
38054;BME280;23859;50.672;7.164;2023-11-21T06:19:01;35916.19;;;-140.95;81.14
38054;BME280;23859;50.672;7.164;2023-11-21T06:21:27;35888.06;;;-140.95;81.13
38054;BME280;23859;50.672;7.164;2023-11-21T06:23:53;35896.09;;;-140.95;81.25
38054;BME280;23859;50.672;7.164;2023-11-21T06:26:19;35894.09;;;-140.95;81.34
38054;BME280;23859;50.672;7.164;2023-11-21T06:28:46;35898.13;;;-140.95;81.61
38054;BME280;23859;50.672;7.164;2023-11-21T06:31:12;35882.03;;;-140.95;81.64
38054;BME280;23859;50.672;7.164;2023-11-21T06:33:38;35884.03;;;-140.95;81.03
38054;BME280;23859;50.672;7.164;2023-11-21T06:36:04;35859.94;;;-140.95;80.63
38054;BME280;23859;50.672;7.164;2023-11-21T06:38:31;35859.94;;;-140.95;80.45
38054;BME280;23859;50.672;7.164;2023-11-21T06:40:58;35855.91;;;-140.95;80.13
38054;BME280;23859;50.672;7.164;2023-11-21T06:43:24;35867.97;;;-140.95;80.11
38054;BME280;23859;50.672;7.164;2023-11-21T06:45:50;35833.81;;;-140.95;79.76
38054;BME280;23859;50.672;7.164;2023-11-21T06:48:16;35865.97;;;-140.95;79.61
38054;BME280;23859;50.672;7.164;2023-11-21T06:50:42;35867.97;;;-140.95;79.31
38054;BME280;23859;50.672;7.164;2023-11-21T06:53:08;35900.13;;;-140.95;79.80
38054;BME280;23859;50.672;7.164;2023-11-21T06:55:35;35882.03;;;-140.95;80.01
38054;BME280;23859;50.672;7.164;2023-11-21T06:58:01;35867.97;;;-140.95;80.18
38054;BME280;23859;50.672;7.164;2023-11-21T07:00:27;35857.94;;;-140.95;79.71
38054;BME280;23859;50.672;7.164;2023-11-21T07:02:54;35900.13;;;-140.95;79.97
38054;BME280;23859;50.672;7.164;2023-11-21T07:05:21;35841.84;;;-140.95;79.16
38054;BME280;23859;50.672;7.164;2023-11-21T07:07:49;35857.94;;;-140.95;78.80
38054;BME280;23859;50.672;7.164;2023-11-21T07:10:15;35882.03;;;-140.95;79.06
38054;BME280;23859;50.672;7.164;2023-11-21T07:12:41;35890.06;;;-140.95;79.70
38054;BME280;23859;50.672;7.164;2023-11-21T07:15:08;35867.97;;;-140.95;79.43
38054;BME280;23859;50.672;7.164;2023-11-21T07:17:37;35859.94;;;-140.95;79.65
38054;BME280;23859;50.672;7.164;2023-11-21T07:20:04;35872.00;;;-140.95;79.88
38054;BME280;23859;50.672;7.164;2023-11-21T07:22:30;35892.09;;;-140.95;80.19
38054;BME280;23859;50.672;7.164;2023-11-21T07:24:56;35912.19;;;-140.95;79.99
38054;BME280;23859;50.672;7.164;2023-11-21T07:27:22;35912.19;;;-140.95;80.13
38054;BME280;23859;50.672;7.164;2023-11-21T07:29:49;35898.13;;;-140.95;79.93
38054;BME280;23859;50.672;7.164;2023-11-21T07:32:15;35859.94;;;-140.95;79.64
38054;BME280;23859;50.672;7.164;2023-11-21T07:34:41;35863.94;;;-140.95;79.46
38054;BME280;23859;50.672;7.164;2023-11-21T07:37:08;35886.06;;;-140.95;79.49
38054;BME280;23859;50.672;7.164;2023-11-21T07:39:37;35878.03;;;-140.95;78.76
38054;BME280;23859;50.672;7.164;2023-11-21T07:42:07;35872.00;;;-140.95;78.61
38054;BME280;23859;50.672;7.164;2023-11-21T07:44:33;35853.91;;;-140.95;77.37
38054;BME280;23859;50.672;7.164;2023-11-21T07:46:59;35847.88;;;-140.95;77.11
38054;BME280;23859;50.672;7.164;2023-11-21T07:49:25;35851.91;;;-140.95;78.01
38054;BME280;23859;50.672;7.164;2023-11-21T07:51:52;35880.03;;;-140.95;77.39
38054;BME280;23859;50.672;7.164;2023-11-21T07:54:18;35863.94;;;-140.95;78.27
38054;BME280;23859;50.672;7.164;2023-11-21T07:56:44;35888.06;;;-140.95;79.00
38054;BME280;23859;50.672;7.164;2023-11-21T07:59:11;35878.03;;;-140.95;79.68
38054;BME280;23859;50.672;7.164;2023-11-21T08:01:38;35872.00;;;-140.95;80.16
38054;BME280;23859;50.672;7.164;2023-11-21T08:04:06;35865.97;;;-140.95;80.05
38054;BME280;23859;50.672;7.164;2023-11-21T08:06:32;35863.94;;;-140.95;80.10
38054;BME280;23859;50.672;7.164;2023-11-21T08:08:59;35837.84;;;-140.95;79.55
38054;BME280;23859;50.672;7.164;2023-11-21T08:11:25;35843.88;;;-140.95;79.80
38054;BME280;23859;50.672;7.164;2023-11-21T08:13:57;35849.88;;;-140.95;79.43
38054;BME280;23859;50.672;7.164;2023-11-21T08:16:24;35807.69;;;-140.95;77.41
38054;BME280;23859;50.672;7.164;2023-11-21T08:18:51;35813.72;;;-140.95;77.39
38054;BME280;23859;50.672;7.164;2023-11-21T08:21:17;35795.63;;;-140.95;77.12
38054;BME280;23859;50.672;7.164;2023-11-21T08:23:43;35831.81;;;-140.95;77.51
38054;BME280;23859;50.672;7.164;2023-11-21T08:26:09;35825.78;;;-140.95;76.81
38054;BME280;23859;50.672;7.164;2023-11-21T08:28:35;35799.66;;;-140.95;76.06
38054;BME280;23859;50.672;7.164;2023-11-21T08:31:02;35815.72;;;-140.95;74.92
38054;BME280;23859;50.672;7.164;2023-11-21T08:33:28;35719.28;;;-140.95;74.82
38054;BME280;23859;50.672;7.164;2023-11-21T08:35:54;35691.16;;;-140.95;73.72
38054;BME280;23859;50.672;7.164;2023-11-21T08:38:20;35657.00;;;-140.95;72.25
38054;BME280;23859;50.672;7.164;2023-11-21T08:40:46;35665.03;;;-140.95;72.09
38054;BME280;23859;50.672;7.164;2023-11-21T08:43:12;35626.88;;;-140.95;70.78
38054;BME280;23859;50.672;7.164;2023-11-21T08:45:40;35663.03;;;-140.95;71.07
38054;BME280;23859;50.672;7.164;2023-11-21T08:48:06;35683.13;;;-140.95;71.71
38054;BME280;23859;50.672;7.164;2023-11-21T08:50:32;35717.28;;;-140.95;72.34
38054;BME280;23859;50.672;7.164;2023-11-21T08:52:59;35705.22;;;-140.95;71.43
38054;BME280;23859;50.672;7.164;2023-11-21T08:55:26;35787.59;;;-140.95;71.67
38054;BME280;23859;50.672;7.164;2023-11-21T08:57:53;35725.31;;;-140.95;71.24
38054;BME280;23859;50.672;7.164;2023-11-21T09:00:19;35735.38;;;-140.95;71.99
38054;BME280;23859;50.672;7.164;2023-11-21T09:02:45;35733.34;;;-140.95;72.32
38054;BME280;23859;50.672;7.164;2023-11-21T09:05:12;35743.41;;;-140.95;72.72
38054;BME280;23859;50.672;7.164;2023-11-21T09:07:40;35703.22;;;-140.95;72.57
38054;BME280;23859;50.672;7.164;2023-11-21T09:10:09;35715.28;;;-140.95;74.31
38054;BME280;23859;50.672;7.164;2023-11-21T09:12:36;35751.44;;;-140.95;73.60
38054;BME280;23859;50.672;7.164;2023-11-21T09:15:04;35739.38;;;-140.95;73.57
38054;BME280;23859;50.672;7.164;2023-11-21T09:17:34;35679.13;;;-140.95;73.22
38054;BME280;23859;50.672;7.164;2023-11-21T09:20:00;35695.19;;;-140.95;73.82
38054;BME280;23859;50.672;7.164;2023-11-21T09:22:29;35699.19;;;-140.95;74.44
38054;BME280;23859;50.672;7.164;2023-11-21T09:24:55;35677.09;;;-140.95;73.16
38054;BME280;23859;50.672;7.164;2023-11-21T09:27:23;35693.19;;;-140.95;73.43
38054;BME280;23859;50.672;7.164;2023-11-21T09:29:49;35675.09;;;-140.95;73.01
38054;BME280;23859;50.672;7.164;2023-11-21T09:32:16;35663.03;;;-140.95;72.39
38054;BME280;23859;50.672;7.164;2023-11-21T09:34:42;35679.13;;;-140.95;71.89
38054;BME280;23859;50.672;7.164;2023-11-21T09:37:08;35630.91;;;-140.95;71.76
38054;BME280;23859;50.672;7.164;2023-11-21T09:39:35;35675.09;;;-140.95;72.17
38054;BME280;23859;50.672;7.164;2023-11-21T09:42:10;35634.91;;;-140.95;71.20
38054;BME280;23859;50.672;7.164;2023-11-21T09:47:29;35691.16;;;-140.95;72.17
38054;BME280;23859;50.672;7.164;2023-11-21T09:49:57;35646.97;;;-140.95;71.04
38054;BME280;23859;50.672;7.164;2023-11-21T09:52:28;35683.13;;;-140.95;71.82
38054;BME280;23859;50.672;7.164;2023-11-21T09:54:55;35675.09;;;-140.95;71.79
38054;BME280;23859;50.672;7.164;2023-11-21T09:57:24;35695.19;;;-140.95;72.36
38054;BME280;23859;50.672;7.164;2023-11-21T09:59:54;35713.25;;;-140.95;73.12
38054;BME280;23859;50.672;7.164;2023-11-21T10:02:29;35703.22;;;-140.95;72.18
38054;BME280;23859;50.672;7.164;2023-11-21T10:04:56;35737.38;;;-140.95;72.72
38054;BME280;23859;50.672;7.164;2023-11-21T10:07:24;35699.19;;;-140.95;70.99
38054;BME280;23859;50.672;7.164;2023-11-21T10:09:51;35673.09;;;-140.95;71.84
38054;BME280;23859;50.672;7.164;2023-11-21T10:12:19;35711.25;;;-140.95;72.51
38054;BME280;23859;50.672;7.164;2023-11-21T10:14:49;35642.94;;;-140.95;71.42
38054;BME280;23859;50.672;7.164;2023-11-21T10:17:18;35612.81;;;-140.95;70.63
38054;BME280;23859;50.672;7.164;2023-11-21T10:19:47;35614.81;;;-140.95;71.26
38054;BME280;23859;50.672;7.164;2023-11-21T10:22:16;35590.72;;;-140.95;71.09
38054;BME280;23859;50.672;7.164;2023-11-21T10:24:43;35582.69;;;-140.95;69.24
38054;BME280;23859;50.672;7.164;2023-11-21T10:27:09;35524.41;;;-140.95;68.03
38054;BME280;23859;50.672;7.164;2023-11-21T10:29:35;35506.34;;;-140.95;66.88
38054;BME280;23859;50.672;7.164;2023-11-21T10:32:05;35534.47;;;-140.95;66.83
38054;BME280;23859;50.672;7.164;2023-11-21T10:34:31;35572.63;;;-140.95;68.31
38054;BME280;23859;50.672;7.164;2023-11-21T10:36:57;35847.88;;;-140.95;68.98
38054;BME280;23859;50.672;7.164;2023-11-21T10:39:24;35602.75;;;-140.95;69.59
38054;BME280;23859;50.672;7.164;2023-11-21T10:41:55;35586.69;;;-140.95;69.06
38054;BME280;23859;50.672;7.164;2023-11-21T10:44:21;35610.81;;;-140.95;68.83
38054;BME280;23859;50.672;7.164;2023-11-21T10:46:54;35626.88;;;-140.95;69.05
38054;BME280;23859;50.672;7.164;2023-11-21T10:49:28;35659.03;;;-140.95;70.38
38054;BME280;23859;50.672;7.164;2023-11-21T10:51:54;35624.88;;;-140.95;69.59
38054;BME280;23859;50.672;7.164;2023-11-21T10:54:23;35634.91;;;-140.95;69.97
38054;BME280;23859;50.672;7.164;2023-11-21T10:56:50;35683.13;;;-140.95;71.01
38054;BME280;23859;50.672;7.164;2023-11-21T10:59:18;35681.13;;;-140.95;71.42
38054;BME280;23859;50.672;7.164;2023-11-21T11:01:46;35655.00;;;-140.95;71.35
38054;BME280;23859;50.672;7.164;2023-11-21T11:04:19;35606.78;;;-140.95;71.66
38054;BME280;23859;50.672;7.164;2023-11-21T11:06:54;35606.78;;;-140.95;71.71
38054;BME280;23859;50.672;7.164;2023-11-21T11:09:20;35554.56;;;-140.95;69.54
38054;BME280;23859;50.672;7.164;2023-11-21T11:11:47;35562.59;;;-140.95;69.16
38054;BME280;23859;50.672;7.164;2023-11-21T11:14:14;35578.66;;;-140.95;69.28
38054;BME280;23859;50.672;7.164;2023-11-21T11:16:42;35530.44;;;-140.95;68.63
38054;BME280;23859;50.672;7.164;2023-11-21T11:19:09;35544.50;;;-140.95;67.84
38054;BME280;23859;50.672;7.164;2023-11-21T11:32:53;35520.41;;;-140.95;67.15
38054;BME280;23859;50.672;7.164;2023-11-21T11:35:32;35562.59;;;-140.95;67.93
38054;BME280;23859;50.672;7.164;2023-11-21T11:37:59;35578.66;;;-140.95;68.71
38054;BME280;23859;50.672;7.164;2023-11-21T11:40:45;35594.72;;;-140.95;68.20
38054;BME280;23859;50.672;7.164;2023-11-21T11:43:11;35588.69;;;-140.95;67.98
38054;BME280;23859;50.672;7.164;2023-11-21T11:45:37;35650.97;;;-140.95;69.49
38054;BME280;23859;50.672;7.164;2023-11-21T11:48:08;35671.06;;;-140.95;71.00
38054;BME280;23859;50.672;7.164;2023-11-21T11:51:00;35650.97;;;-140.95;69.53
38054;BME280;23859;50.672;7.164;2023-11-21T11:53:35;35626.88;;;-140.95;70.32
38054;BME280;23859;50.672;7.164;2023-11-21T11:56:21;35630.91;;;-140.95;70.69
38054;BME280;23859;50.672;7.164;2023-11-21T11:58:52;35644.97;;;-140.95;69.85
38054;BME280;23859;50.672;7.164;2023-11-21T12:01:23;35648.97;;;-140.95;69.59
38054;BME280;23859;50.672;7.164;2023-11-21T12:06:42;35657.00;;;-140.95;70.94
38054;BME280;23859;50.672;7.164;2023-11-21T12:09:17;35648.97;;;-140.95;70.73
38054;BME280;23859;50.672;7.164;2023-11-21T12:11:44;35626.88;;;-140.95;69.89
38054;BME280;23859;50.672;7.164;2023-11-21T12:14:14;35628.88;;;-140.95;70.26
38054;BME280;23859;50.672;7.164;2023-11-21T12:16:42;35604.78;;;-140.95;69.71
38054;BME280;23859;50.672;7.164;2023-11-21T12:19:10;35626.88;;;-140.95;70.23
38054;BME280;23859;50.672;7.164;2023-11-21T12:21:36;35642.94;;;-140.95;69.65
38054;BME280;23859;50.672;7.164;2023-11-21T12:24:03;35650.97;;;-140.95;69.97
38054;BME280;23859;50.672;7.164;2023-11-21T12:26:29;35558.56;;;-140.95;69.49
38054;BME280;23859;50.672;7.164;2023-11-21T12:28:56;35578.66;;;-140.95;69.80
38054;BME280;23859;50.672;7.164;2023-11-21T12:31:22;35522.41;;;-140.95;69.01
38054;BME280;23859;50.672;7.164;2023-11-21T12:33:48;35498.28;;;-140.95;67.76
38054;BME280;23859;50.672;7.164;2023-11-21T12:36:15;35548.53;;;-140.95;68.13
38054;BME280;23859;50.672;7.164;2023-11-21T12:38:42;35546.50;;;-140.95;66.57
38054;BME280;23859;50.672;7.164;2023-11-21T12:41:11;35528.44;;;-140.95;66.21
38054;BME280;23859;50.672;7.164;2023-11-21T12:43:38;35594.72;;;-140.95;67.30
38054;BME280;23859;50.672;7.164;2023-11-21T12:46:07;35596.75;;;-140.95;67.69
38054;BME280;23859;50.672;7.164;2023-11-21T12:48:37;35562.59;;;-140.95;67.17
38054;BME280;23859;50.672;7.164;2023-11-21T12:51:10;35606.78;;;-140.95;67.91
38054;BME280;23859;50.672;7.164;2023-11-21T12:53:44;35586.69;;;-140.95;67.46
38054;BME280;23859;50.672;7.164;2023-11-21T12:56:11;35604.78;;;-140.95;68.44
38054;BME280;23859;50.672;7.164;2023-11-21T12:58:39;35655.00;;;-140.95;69.03